createdAt,value
2022-12-09T00:02:00.320Z,55.10
2022-12-09T00:04:27.915Z,55.00
2022-12-09T00:06:55.534Z,55.10
2022-12-09T00:09:23.270Z,55.10
2022-12-09T00:11:52.900Z,55.10
2022-12-09T00:14:21.620Z,55.10
2022-12-09T00:16:49.202Z,55.10
2022-12-09T00:19:16.816Z,55.10
2022-12-09T00:21:44.559Z,55.10
2022-12-09T00:24:14.304Z,55.10
2022-12-09T00:26:42.083Z,55.10
2022-12-09T00:29:10.699Z,55.10
2022-12-09T00:31:39.444Z,55.10
2022-12-09T00:34:10.676Z,55.10
2022-12-09T00:36:39.515Z,55.10
2022-12-09T00:39:07.045Z,55.10
2022-12-09T00:41:34.660Z,55.10
2022-12-09T00:44:02.004Z,55.10
2022-12-09T00:46:29.811Z,55.10
2022-12-09T00:48:57.662Z,55.10
2022-12-09T00:51:25.852Z,55.10
2022-12-09T00:53:55.939Z,55.10
2022-12-09T00:56:26.424Z,55.10
2022-12-09T00:58:54.459Z,55.20
2022-12-09T01:01:22.728Z,55.20
2022-12-09T01:03:50.437Z,55.20
2022-12-09T01:06:20.646Z,55.30
2022-12-09T01:08:48.499Z,55.30
2022-12-09T01:11:22.038Z,55.40
2022-12-09T01:13:50.153Z,55.40
2022-12-09T01:16:26.601Z,55.50
2022-12-09T01:18:56.066Z,55.50
2022-12-09T01:21:25.082Z,55.60
2022-12-09T01:23:52.604Z,55.60
2022-12-09T01:26:20.929Z,55.70
2022-12-09T01:28:52.697Z,55.70
2022-12-09T01:31:23.431Z,55.80
2022-12-09T01:33:51.851Z,55.80
2022-12-09T01:36:22.855Z,55.90
2022-12-09T01:38:51.131Z,56.00
2022-12-09T01:41:20.701Z,56.00
2022-12-09T01:44:16.223Z,56.10
2022-12-09T01:46:44.888Z,56.20
2022-12-09T01:49:22.221Z,56.20
2022-12-09T01:52:01.045Z,56.20
2022-12-09T01:54:29.456Z,56.30
2022-12-09T01:56:57.966Z,56.40
2022-12-09T01:59:26.191Z,56.50
2022-12-09T02:01:59.226Z,56.60
2022-12-09T02:04:30.066Z,56.60
2022-12-09T02:07:00.321Z,56.70
2022-12-09T02:09:28.374Z,56.70
2022-12-09T02:12:15.728Z,56.80
2022-12-09T02:15:06.798Z,56.80
2022-12-09T02:17:52.419Z,56.80
2022-12-09T02:20:46.313Z,56.80
2022-12-09T02:23:20.001Z,56.90
2022-12-09T02:25:52.967Z,56.90
2022-12-09T02:28:38.434Z,56.90
2022-12-09T02:31:34.744Z,57.00
2022-12-09T02:34:21.177Z,56.90
2022-12-09T02:37:16.973Z,56.90
2022-12-09T02:40:08.906Z,56.90
2022-12-09T02:42:41.891Z,56.90
2022-12-09T02:45:11.216Z,56.80
2022-12-09T02:47:48.035Z,56.80
2022-12-09T02:50:21.104Z,56.80
2022-12-09T02:52:51.580Z,56.70
2022-12-09T02:55:21.904Z,56.70
2022-12-09T02:57:55.203Z,56.70
2022-12-09T03:00:23.480Z,56.70
2022-12-09T03:02:55.032Z,56.70
2022-12-09T03:05:45.648Z,56.70
2022-12-09T03:08:16.402Z,56.80
2022-12-09T03:10:57.811Z,56.70
2022-12-09T03:14:03.739Z,56.50
2022-12-09T03:16:37.644Z,56.70
2022-12-09T03:19:11.254Z,56.60
2022-12-09T03:21:44.076Z,56.70
2022-12-09T03:24:15.913Z,56.80
2022-12-09T03:26:44.363Z,56.80
2022-12-09T03:29:17.684Z,56.90
2022-12-09T03:31:47.205Z,56.90
2022-12-09T03:34:18.313Z,57.00
2022-12-09T03:36:49.209Z,56.90
2022-12-09T03:39:21.831Z,57.00
2022-12-09T03:41:55.703Z,57.00
2022-12-09T03:44:37.056Z,57.00
2022-12-09T03:47:06.945Z,57.10
2022-12-09T03:49:34.945Z,57.10
2022-12-09T03:52:17.396Z,57.00
2022-12-09T03:54:47.352Z,57.10
2022-12-09T03:57:20.009Z,57.00
2022-12-09T03:59:58.675Z,57.00
2022-12-09T04:02:27.411Z,57.00
2022-12-09T04:04:55.404Z,57.10
2022-12-09T04:07:23.495Z,57.00
2022-12-09T04:09:50.874Z,57.20
2022-12-09T04:12:18.416Z,57.30
2022-12-09T04:14:45.910Z,57.40
2022-12-09T04:17:13.696Z,57.40
2022-12-09T04:19:41.133Z,57.40
2022-12-09T04:22:08.607Z,57.40
2022-12-09T04:24:36.367Z,57.50
2022-12-09T04:27:04.238Z,57.50
2022-12-09T04:29:31.530Z,57.50
2022-12-09T04:31:59.626Z,57.50
2022-12-09T04:34:27.370Z,57.60
2022-12-09T04:36:55.402Z,57.50
2022-12-09T04:39:23.429Z,57.60
2022-12-09T04:41:51.012Z,57.60
2022-12-09T04:44:18.734Z,57.60
2022-12-09T04:46:46.198Z,57.60
2022-12-09T04:49:13.623Z,57.70
2022-12-09T04:51:41.583Z,57.70
2022-12-09T04:54:13.813Z,57.70
2022-12-09T04:56:42.489Z,57.80
2022-12-09T04:59:10.423Z,57.80
2022-12-09T05:01:38.160Z,57.80
2022-12-09T05:04:06.452Z,57.80
2022-12-09T05:06:34.875Z,57.90
2022-12-09T05:09:03.483Z,57.90
2022-12-09T05:11:31.411Z,57.90
2022-12-09T05:13:59.168Z,57.90
2022-12-09T05:16:27.213Z,57.90
2022-12-09T05:18:54.864Z,57.90
2022-12-09T05:21:23.063Z,57.90
2022-12-09T05:23:50.659Z,57.90
2022-12-09T05:26:21.972Z,57.90
2022-12-09T05:28:50.487Z,57.80
2022-12-09T05:31:20.946Z,57.80
2022-12-09T05:33:49.978Z,57.80
2022-12-09T05:36:21.838Z,57.80
2022-12-09T05:38:49.803Z,57.80
2022-12-09T05:41:19.089Z,57.90
2022-12-09T05:43:47.288Z,57.90
2022-12-09T05:46:16.694Z,57.90
2022-12-09T05:48:45.088Z,58.00
2022-12-09T05:51:27.966Z,58.10
2022-12-09T05:53:57.798Z,58.30
2022-12-09T05:56:26.601Z,58.40
2022-12-09T05:58:55.623Z,58.40
2022-12-09T06:01:24.998Z,58.40
2022-12-09T06:03:54.198Z,58.40
2022-12-09T06:06:26.869Z,58.40
2022-12-09T06:08:57.161Z,58.40
2022-12-09T06:11:25.825Z,58.40
2022-12-09T06:13:54.748Z,58.40
2022-12-09T06:16:23.590Z,58.40
2022-12-09T06:18:52.656Z,58.30
2022-12-09T06:21:21.181Z,58.20
2022-12-09T06:23:50.712Z,58.20
2022-12-09T06:26:36.909Z,58.20
2022-12-09T06:29:04.415Z,58.20
2022-12-09T06:31:33.450Z,58.00
2022-12-09T06:34:02.101Z,57.90
2022-12-09T06:36:32.261Z,57.70
2022-12-09T06:39:09.701Z,57.60
2022-12-09T06:41:44.483Z,57.60
2022-12-09T06:44:19.968Z,57.60
2022-12-09T06:46:49.560Z,57.50
2022-12-09T06:49:17.371Z,57.50
2022-12-09T06:51:45.526Z,57.50
2022-12-09T06:54:13.469Z,57.70
2022-12-09T06:56:41.326Z,57.80
2022-12-09T06:59:10.655Z,58.00
2022-12-09T07:01:39.837Z,58.00
2022-12-09T07:04:07.895Z,58.00
2022-12-09T07:06:44.451Z,58.10
2022-12-09T07:09:16.669Z,58.20
2022-12-09T07:11:47.083Z,58.20
2022-12-09T07:14:16.860Z,58.20
2022-12-09T07:16:44.732Z,58.20
2022-12-09T07:19:18.970Z,58.10
2022-12-09T07:21:47.768Z,58.00
2022-12-09T07:24:19.420Z,58.00
2022-12-09T07:26:47.713Z,57.80
2022-12-09T07:29:15.459Z,57.80
2022-12-09T07:31:43.745Z,57.70
2022-12-09T07:34:11.792Z,57.80
2022-12-09T07:36:40.594Z,57.90
2022-12-09T07:39:12.753Z,58.00
2022-12-09T07:41:42.137Z,58.20
2022-12-09T07:44:11.233Z,58.20
2022-12-09T07:46:39.782Z,58.20
2022-12-09T07:49:07.617Z,58.20
2022-12-09T07:51:36.299Z,58.20
2022-12-09T07:54:04.144Z,58.30
2022-12-09T07:56:32.217Z,58.30
2022-12-09T07:59:00.073Z,58.40
2022-12-09T08:01:30.231Z,58.50
2022-12-09T08:03:58.145Z,58.50
2022-12-09T08:06:29.783Z,58.40
2022-12-09T08:09:04.129Z,58.40
2022-12-09T08:11:34.151Z,58.40
2022-12-09T08:14:10.569Z,58.30
2022-12-09T08:16:41.876Z,58.30
2022-12-09T08:19:10.324Z,58.20
2022-12-09T08:21:38.371Z,58.20
2022-12-09T08:24:07.810Z,58.20
2022-12-09T08:26:41.467Z,58.30
2022-12-09T08:29:11.885Z,58.30
2022-12-09T08:31:42.689Z,58.40
2022-12-09T08:34:11.134Z,58.50
2022-12-09T08:36:39.278Z,58.60
2022-12-09T08:39:07.215Z,58.60
2022-12-09T08:41:38.512Z,58.50
2022-12-09T08:44:26.010Z,58.50
2022-12-09T08:46:53.897Z,58.50
2022-12-09T08:49:23.441Z,58.40
2022-12-09T08:51:53.553Z,58.40
2022-12-09T08:54:21.557Z,58.50
2022-12-09T08:56:52.246Z,58.40
2022-12-09T08:59:20.829Z,58.40
2022-12-09T09:01:49.425Z,58.30
2022-12-09T09:04:19.593Z,58.20
2022-12-09T09:06:50.379Z,58.20
2022-12-09T09:09:19.568Z,58.20
2022-12-09T09:11:48.120Z,58.20
2022-12-09T09:14:16.684Z,58.00
2022-12-09T09:16:46.457Z,58.10
2022-12-09T09:19:23.522Z,58.30
2022-12-09T09:21:52.461Z,58.40
2022-12-09T09:24:22.969Z,58.20
2022-12-09T09:26:51.797Z,58.00
2022-12-09T09:29:21.517Z,57.80
2022-12-09T09:31:54.556Z,57.60
2022-12-09T09:34:23.363Z,57.30
2022-12-09T09:36:52.040Z,57.50
2022-12-09T09:39:20.351Z,57.80
2022-12-09T09:42:02.119Z,57.40
2022-12-09T09:44:46.484Z,56.20
2022-12-09T09:47:38.067Z,56.50
2022-12-09T09:50:22.151Z,56.40
2022-12-09T09:52:54.568Z,55.80
2022-12-09T09:55:44.652Z,55.80
2022-12-09T09:58:39.029Z,55.40
2022-12-09T10:01:13.351Z,54.40
2022-12-09T10:03:58.880Z,53.70
2022-12-09T10:06:32.575Z,54.60
2022-12-09T10:09:10.370Z,55.40
2022-12-09T10:11:40.708Z,55.60
2022-12-09T10:14:21.443Z,55.30
2022-12-09T10:17:02.382Z,54.50
2022-12-09T10:19:43.637Z,53.90
2022-12-09T10:22:20.396Z,52.80
2022-12-09T10:24:51.017Z,51.50
2022-12-09T10:27:45.308Z,51.20
2022-12-09T10:30:18.637Z,51.40
2022-12-09T10:32:46.699Z,51.00
2022-12-09T10:35:15.371Z,49.70
2022-12-09T10:37:43.734Z,49.90
2022-12-09T10:40:12.061Z,50.20
2022-12-09T10:43:06.428Z,50.40
2022-12-09T10:46:15.079Z,50.80
2022-12-09T10:48:33.326Z,50.70
2022-12-09T10:51:17.910Z,51.00
2022-12-09T10:53:50.980Z,50.70
2022-12-09T10:56:27.413Z,50.00
2022-12-09T10:59:08.989Z,50.10
2022-12-09T11:01:55.512Z,50.60
2022-12-09T11:04:23.697Z,50.00
2022-12-09T11:06:59.084Z,49.50
2022-12-09T11:09:35.769Z,50.00
2022-12-09T11:12:06.730Z,49.70
2022-12-09T11:14:40.734Z,50.40
2022-12-09T11:17:19.568Z,50.00
2022-12-09T11:19:53.552Z,50.00
2022-12-09T11:22:40.308Z,50.50
2022-12-09T11:25:24.001Z,51.00
2022-12-09T11:28:04.917Z,51.10
2022-12-09T11:30:43.211Z,50.50
2022-12-09T11:33:27.449Z,50.40
2022-12-09T11:36:04.858Z,50.20
2022-12-09T11:38:46.308Z,50.40
2022-12-09T11:41:37.088Z,50.80
2022-12-09T11:44:23.572Z,51.20
2022-12-09T11:47:19.948Z,51.60
2022-12-09T11:49:54.643Z,52.00
2022-12-09T11:52:29.122Z,52.50
2022-12-09T11:55:11.662Z,52.90
2022-12-09T11:57:46.807Z,53.70
2022-12-09T12:00:41.790Z,54.10
2022-12-09T12:03:20.635Z,54.60
2022-12-09T12:05:51.551Z,55.00
2022-12-09T12:08:35.327Z,55.40
2022-12-09T12:11:15.505Z,55.50
2022-12-09T12:13:50.377Z,55.60
2022-12-09T12:16:42.824Z,55.70
2022-12-09T12:19:35.450Z,55.70
2022-12-09T12:22:29.419Z,55.50
2022-12-09T12:25:15.697Z,55.30
2022-12-09T12:28:20.738Z,54.90
2022-12-09T12:31:15.406Z,54.80
2022-12-09T12:34:23.985Z,54.60
2022-12-09T12:37:02.592Z,54.60
2022-12-09T12:39:35.873Z,54.70
2022-12-09T12:42:19.979Z,55.00
2022-12-09T12:45:11.625Z,55.70
2022-12-09T12:47:54.240Z,56.20
2022-12-09T12:50:43.614Z,56.50
2022-12-09T12:53:30.981Z,56.90
2022-12-09T12:56:07.237Z,57.40
2022-12-09T12:58:41.331Z,57.80
2022-12-09T13:01:25.510Z,57.90
2022-12-09T13:03:55.801Z,58.10
2022-12-09T13:06:50.789Z,57.50
2022-12-09T13:09:38.438Z,57.40
2022-12-09T13:12:44.349Z,57.20
2022-12-09T13:15:20.567Z,57.20
2022-12-09T13:17:49.728Z,57.10
2022-12-09T13:20:30.066Z,57.00
2022-12-09T13:23:03.301Z,57.00
2022-12-09T13:25:39.521Z,57.10
2022-12-09T13:28:33.170Z,57.10
2022-12-09T13:31:01.467Z,57.30
2022-12-09T13:33:56.900Z,57.30
2022-12-09T13:36:41.183Z,57.30
2022-12-09T13:39:13.652Z,57.40
2022-12-09T13:42:00.133Z,57.40
2022-12-09T13:44:35.977Z,57.50
2022-12-09T13:47:25.128Z,57.50
2022-12-09T13:50:08.353Z,57.60
2022-12-09T13:52:52.599Z,57.60
2022-12-09T13:56:01.220Z,57.80
2022-12-09T13:58:31.823Z,57.80
2022-12-09T14:01:13.421Z,57.90
2022-12-09T14:03:52.465Z,57.90
2022-12-09T14:06:34.073Z,58.20
2022-12-09T14:09:06.513Z,58.40
2022-12-09T14:11:37.196Z,58.60
2022-12-09T14:14:24.550Z,58.60
2022-12-09T14:17:03.982Z,58.80
2022-12-09T14:19:33.569Z,59.10
2022-12-09T14:22:24.045Z,59.10
2022-12-09T14:24:59.137Z,59.30
2022-12-09T14:27:31.558Z,59.40
2022-12-09T14:30:15.367Z,59.30
2022-12-09T14:32:57.265Z,59.40
2022-12-09T14:35:30.941Z,59.30
2022-12-09T14:38:08.876Z,59.40
2022-12-09T14:40:53.610Z,59.60
2022-12-09T14:43:38.139Z,59.90
2022-12-09T14:46:19.263Z,60.10
2022-12-09T14:48:53.885Z,60.30
2022-12-09T14:51:58.612Z,60.80
2022-12-09T14:54:32.978Z,60.90
2022-12-09T14:57:04.428Z,61.20
2022-12-09T14:59:32.872Z,61.60
2022-12-09T15:02:18.725Z,61.70
2022-12-09T15:04:48.811Z,62.20
2022-12-09T15:07:22.803Z,62.10
2022-12-09T15:09:55.380Z,62.00
2022-12-09T15:12:44.044Z,62.10
2022-12-09T15:15:31.746Z,62.30
2022-12-09T15:18:00.638Z,62.60
2022-12-09T15:20:31.711Z,62.50
2022-12-09T15:23:03.344Z,62.30
2022-12-09T15:25:31.665Z,62.30
2022-12-09T15:28:06.014Z,62.60
2022-12-09T15:30:36.778Z,62.60
2022-12-09T15:33:12.822Z,62.70
2022-12-09T15:35:44.122Z,62.80
2022-12-09T15:38:11.576Z,63.00
2022-12-09T15:40:59.359Z,62.80
2022-12-09T15:43:27.559Z,63.00
2022-12-09T15:45:55.265Z,63.10
2022-12-09T15:48:30.685Z,63.20
2022-12-09T15:51:03.146Z,63.50
2022-12-09T15:53:36.639Z,63.50
2022-12-09T15:56:24.175Z,63.70
2022-12-09T15:58:54.755Z,63.60
2022-12-09T16:01:26.068Z,63.60
2022-12-09T16:03:55.333Z,64.00
2022-12-09T16:06:32.992Z,64.10
2022-12-09T16:09:01.396Z,64.20
2022-12-09T16:11:40.599Z,64.10
2022-12-09T16:14:09.136Z,64.10
2022-12-09T16:16:36.787Z,64.00
2022-12-09T16:19:04.266Z,64.20
2022-12-09T16:21:36.547Z,64.10
2022-12-09T16:24:13.264Z,64.10
2022-12-09T16:26:47.063Z,64.10
2022-12-09T16:29:22.842Z,64.10
2022-12-09T16:32:10.733Z,64.00
2022-12-09T16:34:38.117Z,63.90
2022-12-09T16:37:35.732Z,63.90
2022-12-09T16:40:25.737Z,64.00
2022-12-09T16:43:16.553Z,63.80
2022-12-09T16:45:51.055Z,63.90
2022-12-09T16:48:20.432Z,63.70
2022-12-09T16:50:51.622Z,63.60
2022-12-09T16:53:25.953Z,63.70
2022-12-09T16:55:56.264Z,63.70
2022-12-09T16:58:24.062Z,63.80
2022-12-09T17:00:52.118Z,63.70
2022-12-09T17:03:38.599Z,63.80
2022-12-09T17:06:07.495Z,64.40
2022-12-09T17:08:36.651Z,64.30
2022-12-09T17:11:04.183Z,64.50
2022-12-09T17:13:31.947Z,64.70
2022-12-09T17:15:59.568Z,64.80
2022-12-09T17:18:29.040Z,65.00
2022-12-09T17:21:04.553Z,65.30
2022-12-09T17:23:39.190Z,65.30
2022-12-09T17:26:09.794Z,65.10
2022-12-09T17:28:38.777Z,65.20
2022-12-09T17:31:12.055Z,65.20
2022-12-09T17:33:40.105Z,65.50
2022-12-09T17:36:07.995Z,65.50
2022-12-09T17:38:36.023Z,65.50
2022-12-09T17:41:06.379Z,65.70
2022-12-09T17:43:34.899Z,66.10
2022-12-09T17:46:04.580Z,66.00
2022-12-09T17:48:36.916Z,66.10
2022-12-09T17:51:08.961Z,66.20
2022-12-09T17:53:38.014Z,66.30
2022-12-09T17:56:10.416Z,66.30
2022-12-09T17:58:38.981Z,66.30
2022-12-09T18:01:18.426Z,66.20
2022-12-09T18:04:07.938Z,66.30
2022-12-09T18:06:35.043Z,66.10
2022-12-09T18:09:05.983Z,65.90
2022-12-09T18:11:34.312Z,66.10
2022-12-09T18:14:02.639Z,65.90
2022-12-09T18:16:30.333Z,66.00
2022-12-09T18:19:03.600Z,66.00
2022-12-09T18:21:31.218Z,66.10
2022-12-09T18:23:58.835Z,66.20
2022-12-09T18:26:30.630Z,66.10
2022-12-09T18:28:59.804Z,66.30
2022-12-09T18:31:27.521Z,66.20
2022-12-09T18:33:55.169Z,66.10
2022-12-09T18:36:25.648Z,66.10
2022-12-09T18:38:54.252Z,66.20
2022-12-09T18:41:29.200Z,66.20
2022-12-09T18:43:59.051Z,66.30
2022-12-09T18:46:34.294Z,66.20
2022-12-09T18:49:14.191Z,66.20
2022-12-09T18:51:43.373Z,66.50
2022-12-09T18:54:21.417Z,66.50
2022-12-09T18:56:49.058Z,66.50
2022-12-09T18:59:17.574Z,66.50
2022-12-09T19:01:46.898Z,66.50
2022-12-09T19:04:21.448Z,66.60
2022-12-09T19:06:52.100Z,67.00
2022-12-09T19:09:22.436Z,67.00
2022-12-09T19:11:51.679Z,66.90
2022-12-09T19:14:21.672Z,66.80
2022-12-09T19:16:49.508Z,67.00
2022-12-09T19:19:22.556Z,67.10
2022-12-09T19:21:50.720Z,67.00
2022-12-09T19:24:21.801Z,67.00
2022-12-09T19:26:53.394Z,67.20
2022-12-09T19:29:22.275Z,67.10
2022-12-09T19:31:52.478Z,67.10
2022-12-09T19:34:30.156Z,67.20
2022-12-09T19:37:00.566Z,67.30
2022-12-09T19:39:31.389Z,67.20
2022-12-09T19:41:59.947Z,67.20
2022-12-09T19:44:59.739Z,67.20
2022-12-09T19:47:15.675Z,67.40
2022-12-09T19:49:44.547Z,67.20
2022-12-09T19:52:12.560Z,67.30
2022-12-09T19:54:40.255Z,67.40
2022-12-09T19:57:07.828Z,67.50
2022-12-09T19:59:35.982Z,67.50
2022-12-09T20:02:03.391Z,67.70
2022-12-09T20:04:49.028Z,67.60
2022-12-09T20:07:17.557Z,67.60
2022-12-09T20:09:45.551Z,67.70
2022-12-09T20:12:12.901Z,68.00
2022-12-09T20:14:40.804Z,68.00
2022-12-09T20:17:08.186Z,68.10
2022-12-09T20:19:36.823Z,68.20
2022-12-09T20:22:07.593Z,68.20
2022-12-09T20:24:35.186Z,68.20
2022-12-09T20:27:02.495Z,68.10
2022-12-09T20:29:35.734Z,68.00
2022-12-09T20:32:07.695Z,68.10
2022-12-09T20:34:36.109Z,68.00
2022-12-09T20:37:03.826Z,68.10
2022-12-09T20:39:31.555Z,68.10
2022-12-09T20:41:59.509Z,68.00
2022-12-09T20:44:27.752Z,68.10
2022-12-09T20:46:55.294Z,68.20
2022-12-09T20:49:27.142Z,68.20
2022-12-09T20:51:55.109Z,68.20
2022-12-09T20:54:23.467Z,68.20
2022-12-09T20:56:51.079Z,68.20
2022-12-09T20:59:18.807Z,68.00
2022-12-09T21:01:47.425Z,68.00
2022-12-09T21:04:15.820Z,68.00
2022-12-09T21:06:43.780Z,68.10
2022-12-09T21:09:15.026Z,68.20
2022-12-09T21:11:42.773Z,68.50
2022-12-09T21:14:11.968Z,68.70
2022-12-09T21:16:42.038Z,68.80
2022-12-09T21:19:14.637Z,68.80
2022-12-09T21:21:46.868Z,69.00
2022-12-09T21:24:15.962Z,69.10
2022-12-09T21:26:46.328Z,69.10
2022-12-09T21:29:15.333Z,69.00
2022-12-09T21:31:44.191Z,69.00
2022-12-09T21:34:11.840Z,69.00
2022-12-09T21:36:43.352Z,68.80
2022-12-09T21:39:13.451Z,68.80
2022-12-09T21:41:41.925Z,68.90
2022-12-09T21:44:15.336Z,69.20
2022-12-09T21:46:44.730Z,69.30
2022-12-09T21:49:13.795Z,69.10
2022-12-09T21:51:41.434Z,69.00
2022-12-09T21:54:09.084Z,68.90
2022-12-09T21:56:37.509Z,68.80
2022-12-09T21:59:07.446Z,68.70
2022-12-09T22:01:38.100Z,68.80
2022-12-09T22:04:09.150Z,68.90
2022-12-09T22:06:37.159Z,69.00
2022-12-09T22:09:07.065Z,69.00
2022-12-09T22:11:36.745Z,69.00
2022-12-09T22:14:05.941Z,69.00
2022-12-09T22:16:36.395Z,69.10
2022-12-09T22:19:08.161Z,69.30
2022-12-09T22:21:36.404Z,69.30
2022-12-09T22:24:06.939Z,69.20
2022-12-09T22:26:34.969Z,69.00
2022-12-09T22:29:04.573Z,69.10
2022-12-09T22:31:35.366Z,69.20
2022-12-09T22:34:06.740Z,69.30
2022-12-09T22:36:36.877Z,69.50
2022-12-09T22:39:08.319Z,69.70
2022-12-09T22:41:36.091Z,69.60
2022-12-09T22:44:04.728Z,69.50
2022-12-09T22:46:34.035Z,69.50
2022-12-09T22:49:04.804Z,69.50
2022-12-09T22:51:39.078Z,69.50
2022-12-09T22:54:09.295Z,69.50
2022-12-09T22:56:38.722Z,69.50
2022-12-09T22:59:06.842Z,69.50
2022-12-09T23:01:37.245Z,69.40
2022-12-09T23:04:07.115Z,69.40
2022-12-09T23:06:36.801Z,69.40
2022-12-09T23:09:09.290Z,69.40
2022-12-09T23:11:37.109Z,69.50
2022-12-09T23:14:04.765Z,69.40
2022-12-09T23:16:32.296Z,69.50
2022-12-09T23:19:01.355Z,69.40
2022-12-09T23:21:31.525Z,69.40
2022-12-09T23:24:02.725Z,69.30
2022-12-09T23:26:32.410Z,69.30
2022-12-09T23:29:02.921Z,69.20
2022-12-09T23:31:33.295Z,69.10
2022-12-09T23:34:02.246Z,69.00
2022-12-09T23:36:36.542Z,69.00
2022-12-09T23:39:09.404Z,69.10
2022-12-09T23:41:38.797Z,69.20
2022-12-09T23:44:18.999Z,69.20
2022-12-09T23:46:46.721Z,69.40
2022-12-09T23:49:15.232Z,69.30
2022-12-09T23:51:46.348Z,69.30
2022-12-09T23:54:16.325Z,69.30
2022-12-09T23:56:47.940Z,69.30
2022-12-09T23:59:17.034Z,69.30
